sensor_id;sensor_type;location;lat;lon;timestamp;pressure;altitude;pressure_sealevel;temperature;humidity
51603;BME280;37954;51.980;5.850;2024-03-29T00:00:36;98792.53;;;9.36;66.73
51603;BME280;37954;51.980;5.850;2024-03-29T00:04:47;98786.13;;;9.32;66.43
51603;BME280;37954;51.980;5.850;2024-03-29T00:08:58;98776.47;;;9.31;66.87
51603;BME280;37954;51.980;5.850;2024-03-29T00:13:08;98763.06;;;9.31;66.91
51603;BME280;37954;51.980;5.850;2024-03-29T00:17:19;98779.94;;;9.36;66.78
51603;BME280;37954;51.980;5.850;2024-03-29T00:21:30;98784.78;;;9.34;67.04
51603;BME280;37954;51.980;5.850;2024-03-29T00:25:41;98782.91;;;9.35;67.20
51603;BME280;37954;51.980;5.850;2024-03-29T00:29:51;98779.94;;;9.36;66.95
51603;BME280;37954;51.980;5.850;2024-03-29T00:34:05;98793.06;;;9.28;67.25
51603;BME280;37954;51.980;5.850;2024-03-29T00:38:15;98802.72;;;9.29;67.25
51603;BME280;37954;51.980;5.850;2024-03-29T00:42:26;98798.66;;;9.21;67.08
51603;BME280;37954;51.980;5.850;2024-03-29T00:46:37;98795.72;;;9.23;67.55
51603;BME280;37954;51.980;5.850;2024-03-29T00:50:48;98794.91;;;9.22;67.43
51603;BME280;37954;51.980;5.850;2024-03-29T00:54:58;98805.13;;;9.30;67.41
51603;BME280;37954;51.980;5.850;2024-03-29T00:59:09;98803.53;;;9.34;67.19
51603;BME280;37954;51.980;5.850;2024-03-29T01:03:20;98790.94;;;9.35;66.89
51603;BME280;37954;51.980;5.850;2024-03-29T01:07:30;98805.97;;;9.41;66.98
51603;BME280;37954;51.980;5.850;2024-03-29T01:11:41;98810.25;;;9.42;66.66
51603;BME280;37954;51.980;5.850;2024-03-29T01:15:52;98826.03;;;9.38;66.73
51603;BME280;37954;51.980;5.850;2024-03-29T01:20:03;98832.72;;;9.36;66.60
51603;BME280;37954;51.980;5.850;2024-03-29T01:24:14;98817.75;;;9.35;66.73
51603;BME280;37954;51.980;5.850;2024-03-29T01:28:24;98818.81;;;9.34;66.75
51603;BME280;37954;51.980;5.850;2024-03-29T01:32:35;98810.44;;;9.25;66.64
51603;BME280;37954;51.980;5.850;2024-03-29T01:36:46;98786.38;;;9.30;66.86
51603;BME280;37954;51.980;5.850;2024-03-29T01:40:57;98793.06;;;9.28;66.75
51603;BME280;37954;51.980;5.850;2024-03-29T01:45:08;98794.13;;;9.27;66.81
51603;BME280;37954;51.980;5.850;2024-03-29T01:49:19;98793.31;;;9.26;66.60
51603;BME280;37954;51.980;5.850;2024-03-29T01:53:30;98772.66;;;9.22;66.62
51603;BME280;37954;51.980;5.850;2024-03-29T01:57:41;98748.03;;;9.25;66.70
51603;BME280;37954;51.980;5.850;2024-03-29T02:01:52;98749.09;;;9.24;66.85
51603;BME280;37954;51.980;5.850;2024-03-29T02:06:04;98725.25;;;9.17;66.60
51603;BME280;37954;51.980;5.850;2024-03-29T02:10:15;98733.31;;;9.17;66.64
51603;BME280;37954;51.980;5.850;2024-03-29T02:14:26;98749.88;;;9.14;66.71
51603;BME280;37954;51.980;5.850;2024-03-29T02:18:37;98746.69;;;9.17;66.81
51603;BME280;37954;51.980;5.850;2024-03-29T02:22:54;98744.53;;;9.14;66.85
51603;BME280;37954;51.980;5.850;2024-03-29T02:27:05;98758.22;;;9.23;66.80
51603;BME280;37954;51.980;5.850;2024-03-29T02:31:16;98786.34;;;9.25;66.95
51603;BME280;37954;51.980;5.850;2024-03-29T02:35:27;98775.09;;;9.28;66.79
51603;BME280;37954;51.980;5.850;2024-03-29T02:39:37;98789.84;;;9.31;67.10
51603;BME280;37954;51.980;5.850;2024-03-29T02:43:48;98801.13;;;9.43;66.85
51603;BME280;37954;51.980;5.850;2024-03-29T02:47:59;98784.81;;;9.45;66.90
51603;BME280;37954;51.980;5.850;2024-03-29T02:52:09;98784.81;;;9.55;66.94
51603;BME280;37954;51.980;5.850;2024-03-29T02:56:20;98773.31;;;9.49;66.46
51603;BME280;37954;51.980;5.850;2024-03-29T03:00:34;98795.84;;;9.63;66.53
51603;BME280;37954;51.980;5.850;2024-03-29T03:04:44;98791.56;;;9.67;66.38
51603;BME280;37954;51.980;5.850;2024-03-29T03:08:55;98780.03;;;9.72;66.00
51603;BME280;37954;51.980;5.850;2024-03-29T03:13:26;98789.41;;;9.74;65.99
51603;BME280;37954;51.980;5.850;2024-03-29T03:17:37;98774.94;;;9.75;66.09
51603;BME280;37954;51.980;5.850;2024-03-29T03:21:47;98795.59;;;9.80;65.83
51603;BME280;37954;51.980;5.850;2024-03-29T03:26:02;98800.69;;;9.82;65.81
51603;BME280;37954;51.980;5.850;2024-03-29T03:30:16;98799.38;;;9.84;65.98
51603;BME280;37954;51.980;5.850;2024-03-29T03:34:27;98813.84;;;9.88;65.68
51603;BME280;37954;51.980;5.850;2024-03-29T03:38:38;98812.50;;;9.91;65.81
51603;BME280;37954;51.980;5.850;2024-03-29T03:42:50;98803.13;;;9.93;65.79
51603;BME280;37954;51.980;5.850;2024-03-29T03:47:01;98796.16;;;9.92;66.23
51603;BME280;37954;51.980;5.850;2024-03-29T03:51:11;98799.63;;;9.93;66.30
51603;BME280;37954;51.980;5.850;2024-03-29T03:55:22;98805.81;;;9.93;66.64
51603;BME280;37954;51.980;5.850;2024-03-29T03:59:33;98815.19;;;9.91;67.00
51603;BME280;37954;51.980;5.850;2024-03-29T04:03:44;98816.78;;;9.82;67.96
51603;BME280;37954;51.980;5.850;2024-03-29T04:07:55;98828.84;;;9.79;68.63
51603;BME280;37954;51.980;5.850;2024-03-29T04:12:05;98834.44;;;9.72;69.80
51603;BME280;37954;51.980;5.850;2024-03-29T04:16:16;98833.09;;;9.65;70.70
51603;BME280;37954;51.980;5.850;2024-03-29T04:20:27;98845.41;;;9.61;71.77
51603;BME280;37954;51.980;5.850;2024-03-29T04:24:37;98834.41;;;9.57;72.88
51603;BME280;37954;51.980;5.850;2024-03-29T04:28:48;98820.22;;;9.52;73.58
51603;BME280;37954;51.980;5.850;2024-03-29T04:32:59;98824.44;;;9.42;74.39
51603;BME280;37954;51.980;5.850;2024-03-29T04:37:09;98833.00;;;9.39;74.51
51603;BME280;37954;51.980;5.850;2024-03-29T04:41:20;98851.50;;;9.41;75.47
51603;BME280;37954;51.980;5.850;2024-03-29T04:45:31;98842.91;;;9.34;76.11
51603;BME280;37954;51.980;5.850;2024-03-29T04:49:41;98824.09;;;9.24;77.14
51603;BME280;37954;51.980;5.850;2024-03-29T04:53:52;98836.44;;;9.25;77.30
51603;BME280;37954;51.980;5.850;2024-03-29T04:58:03;98826.50;;;9.20;77.96
51603;BME280;37954;51.980;5.850;2024-03-29T05:02:14;98846.81;;;9.11;78.61
51603;BME280;37954;51.980;5.850;2024-03-29T05:06:39;98837.13;;;9.05;79.47
51603;BME280;37954;51.980;5.850;2024-03-29T05:10:50;98849.72;;;9.04;79.83
51603;BME280;37954;51.980;5.850;2024-03-29T05:15:01;98842.19;;;8.96;81.57
51603;BME280;37954;51.980;5.850;2024-03-29T05:19:12;98838.94;;;8.89;81.95
51603;BME280;37954;51.980;5.850;2024-03-29T05:23:23;98848.78;;;8.84;82.16
51603;BME280;37954;51.980;5.850;2024-03-29T05:27:34;98857.91;;;8.83;83.12
51603;BME280;37954;51.980;5.850;2024-03-29T05:31:45;98847.13;;;8.72;83.40
51603;BME280;37954;51.980;5.850;2024-03-29T05:35:56;98865.81;;;8.67;84.84
51603;BME280;37954;51.980;5.850;2024-03-29T05:40:07;98875.19;;;8.65;85.73
51603;BME280;37954;51.980;5.850;2024-03-29T05:44:18;98865.53;;;8.64;86.07
51603;BME280;37954;51.980;5.850;2024-03-29T05:48:29;98876.00;;;8.65;86.98
51603;BME280;37954;51.980;5.850;2024-03-29T05:52:40;98869.28;;;8.63;87.08
51603;BME280;37954;51.980;5.850;2024-03-29T05:56:50;98861.25;;;8.63;87.10
51603;BME280;37954;51.980;5.850;2024-03-29T06:01:01;98871.72;;;8.64;88.20
51603;BME280;37954;51.980;5.850;2024-03-29T06:05:12;98870.34;;;8.67;88.32
51603;BME280;37954;51.980;5.850;2024-03-29T06:09:23;98874.66;;;8.68;88.68
51603;BME280;37954;51.980;5.850;2024-03-29T06:13:33;98884.53;;;8.67;89.53
51603;BME280;37954;51.980;5.850;2024-03-29T06:18:03;98900.09;;;8.70;90.51
51603;BME280;37954;51.980;5.850;2024-03-29T06:22:13;98887.28;;;8.72;91.32
51603;BME280;37954;51.980;5.850;2024-03-29T06:26:24;98894.25;;;8.73;92.23
51603;BME280;37954;51.980;5.850;2024-03-29T06:30:35;98879.84;;;8.80;92.04
51603;BME280;37954;51.980;5.850;2024-03-29T06:34:46;98873.97;;;8.83;91.73
51603;BME280;37954;51.980;5.850;2024-03-29T06:38:56;98890.06;;;8.88;92.18
51603;BME280;37954;51.980;5.850;2024-03-29T06:43:07;98912.31;;;8.93;92.12
51603;BME280;37954;51.980;5.850;2024-03-29T06:47:19;98899.94;;;8.87;93.03
51603;BME280;37954;51.980;5.850;2024-03-29T06:51:29;98898.59;;;8.85;93.14
51603;BME280;37954;51.980;5.850;2024-03-29T06:55:40;98892.41;;;8.79;93.73
51603;BME280;37954;51.980;5.850;2024-03-29T06:59:51;98900.44;;;8.79;94.51
51603;BME280;37954;51.980;5.850;2024-03-29T07:04:03;98896.97;;;8.79;95.00
51603;BME280;37954;51.980;5.850;2024-03-29T07:08:14;98850.34;;;8.75;94.60
51603;BME280;37954;51.980;5.850;2024-03-29T07:12:24;98869.63;;;8.77;94.65
51603;BME280;37954;51.980;5.850;2024-03-29T07:16:35;98878.44;;;8.72;95.06
51603;BME280;37954;51.980;5.850;2024-03-29T07:20:46;98886.22;;;8.73;95.78
51603;BME280;37954;51.980;5.850;2024-03-29T07:24:56;98905.00;;;8.79;95.38
51603;BME280;37954;51.980;5.850;2024-03-29T07:29:07;98912.78;;;8.85;96.32
51603;BME280;37954;51.980;5.850;2024-03-29T07:33:18;98900.75;;;8.88;96.37
51603;BME280;37954;51.980;5.850;2024-03-29T07:37:31;98908.34;;;9.01;95.81
51603;BME280;37954;51.980;5.850;2024-03-29T07:41:42;98900.34;;;9.06;95.74
51603;BME280;37954;51.980;5.850;2024-03-29T07:45:52;98921.84;;;9.16;96.58
51603;BME280;37954;51.980;5.850;2024-03-29T07:50:03;98923.47;;;9.22;96.73
51603;BME280;37954;51.980;5.850;2024-03-29T07:54:14;98924.53;;;9.21;96.61
51603;BME280;37954;51.980;5.850;2024-03-29T07:58:24;98932.84;;;9.20;97.15
51603;BME280;37954;51.980;5.850;2024-03-29T08:02:35;98933.91;;;9.19;96.87
51603;BME280;37954;51.980;5.850;2024-03-29T08:06:46;98928.81;;;9.17;96.49
51603;BME280;37954;51.980;5.850;2024-03-29T08:10:57;98930.19;;;9.25;96.35
51603;BME280;37954;51.980;5.850;2024-03-29T08:15:08;98921.66;;;9.28;96.67
51603;BME280;37954;51.980;5.850;2024-03-29T08:19:21;98932.41;;;9.33;96.55
51603;BME280;37954;51.980;5.850;2024-03-29T08:23:31;98923.56;;;9.37;96.19
51603;BME280;37954;51.980;5.850;2024-03-29T08:27:42;98946.09;;;9.41;96.31
51603;BME280;37954;51.980;5.850;2024-03-29T08:31:53;98931.16;;;9.51;96.27
51603;BME280;37954;51.980;5.850;2024-03-29T08:36:05;98915.06;;;9.56;96.51
51603;BME280;37954;51.980;5.850;2024-03-29T08:40:16;98908.97;;;9.65;96.44
51603;BME280;37954;51.980;5.850;2024-03-29T08:44:26;98935.84;;;9.81;96.41
51603;BME280;37954;51.980;5.850;2024-03-29T08:48:37;98928.34;;;9.83;96.34
51603;BME280;37954;51.980;5.850;2024-03-29T08:52:50;98938.03;;;9.94;95.97
51603;BME280;37954;51.980;5.850;2024-03-29T08:57:03;98910.72;;;10.17;96.28
51603;BME280;37954;51.980;5.850;2024-03-29T09:01:15;98926.09;;;10.37;96.28
51603;BME280;37954;51.980;5.850;2024-03-29T09:05:26;98923.94;;;10.74;95.81
51603;BME280;37954;51.980;5.850;2024-03-29T09:09:39;98935.50;;;10.95;95.02
51603;BME280;37954;51.980;5.850;2024-03-29T09:13:52;98943.84;;;10.89;92.97
51603;BME280;37954;51.980;5.850;2024-03-29T09:18:04;98941.69;;;11.06;92.07
51603;BME280;37954;51.980;5.850;2024-03-29T09:22:27;98932.97;;;11.55;91.82
51603;BME280;37954;51.980;5.850;2024-03-29T09:26:38;98924.41;;;12.12;90.73
51603;BME280;37954;51.980;5.850;2024-03-29T09:30:50;98933.16;;;13.01;89.54
51603;BME280;37954;51.980;5.850;2024-03-29T09:35:01;98944.25;;;14.42;90.03
51603;BME280;37954;51.980;5.850;2024-03-29T09:39:12;98954.84;;;15.69;86.61
51603;BME280;37954;51.980;5.850;2024-03-29T09:43:23;98950.47;;;16.94;81.12
51603;BME280;37954;51.980;5.850;2024-03-29T09:47:35;98929.94;;;17.64;73.24
51603;BME280;37954;51.980;5.850;2024-03-29T09:51:47;98951.00;;;17.98;70.00
51603;BME280;37954;51.980;5.850;2024-03-29T09:55:58;98950.22;;;18.15;67.66
51603;BME280;37954;51.980;5.850;2024-03-29T10:00:10;98965.53;;;17.62;63.83
51603;BME280;37954;51.980;5.850;2024-03-29T10:04:23;98963.34;;;17.11;63.62
51603;BME280;37954;51.980;5.850;2024-03-29T10:08:34;98980.31;;;16.58;63.04
51603;BME280;37954;51.980;5.850;2024-03-29T10:12:45;98969.16;;;16.24;64.45
51603;BME280;37954;51.980;5.850;2024-03-29T10:16:57;98973.59;;;15.79;64.35
51603;BME280;37954;51.980;5.850;2024-03-29T10:21:08;98966.81;;;15.49;65.10
51603;BME280;37954;51.980;5.850;2024-03-29T10:25:19;98954.97;;;15.45;66.50
51603;BME280;37954;51.980;5.850;2024-03-29T10:29:30;98958.66;;;15.81;66.58
51603;BME280;37954;51.980;5.850;2024-03-29T10:33:44;98973.63;;;16.42;66.15
51603;BME280;37954;51.980;5.850;2024-03-29T10:37:55;98977.94;;;16.43;64.72
51603;BME280;37954;51.980;5.850;2024-03-29T10:42:05;98964.59;;;16.33;64.74
51603;BME280;37954;51.980;5.850;2024-03-29T10:46:16;98967.66;;;17.12;65.66
51603;BME280;37954;51.980;5.850;2024-03-29T10:50:28;98957.25;;;18.24;63.43
51603;BME280;37954;51.980;5.850;2024-03-29T10:54:41;98965.00;;;18.74;60.15
51603;BME280;37954;51.980;5.850;2024-03-29T10:58:55;98956.97;;;19.12;59.09
51603;BME280;37954;51.980;5.850;2024-03-29T11:03:24;98979.22;;;19.14;57.96
51603;BME280;37954;51.980;5.850;2024-03-29T11:07:40;98985.34;;;18.85;56.62
51603;BME280;37954;51.980;5.850;2024-03-29T11:11:52;98975.34;;;18.55;56.74
51603;BME280;37954;51.980;5.850;2024-03-29T11:16:03;98993.13;;;18.43;56.15
51603;BME280;37954;51.980;5.850;2024-03-29T11:20:14;99015.59;;;18.84;56.78
51603;BME280;37954;51.980;5.850;2024-03-29T11:24:28;98996.66;;;19.22;55.95
51603;BME280;37954;51.980;5.850;2024-03-29T11:28:39;98983.03;;;19.39;54.68
51603;BME280;37954;51.980;5.850;2024-03-29T11:32:52;98976.72;;;19.64;54.06
51603;BME280;37954;51.980;5.850;2024-03-29T11:37:06;98966.81;;;19.42;53.73
51603;BME280;37954;51.980;5.850;2024-03-29T11:41:19;98984.03;;;19.17;53.71
51603;BME280;37954;51.980;5.850;2024-03-29T11:45:32;98990.63;;;18.82;53.80
51603;BME280;37954;51.980;5.850;2024-03-29T11:49:44;98996.47;;;18.58;54.64
51603;BME280;37954;51.980;5.850;2024-03-29T11:53:56;99001.09;;;18.40;54.89
51603;BME280;37954;51.980;5.850;2024-03-29T11:58:07;99007.66;;;18.30;55.13
51603;BME280;37954;51.980;5.850;2024-03-29T12:02:18;99001.72;;;18.28;54.68
51603;BME280;37954;51.980;5.850;2024-03-29T12:06:29;99007.16;;;18.37;54.71
51603;BME280;37954;51.980;5.850;2024-03-29T12:10:39;98996.47;;;18.40;54.08
51603;BME280;37954;51.980;5.850;2024-03-29T12:14:50;99014.06;;;18.43;53.85
51603;BME280;37954;51.980;5.850;2024-03-29T12:19:01;99020.16;;;18.49;53.30
51603;BME280;37954;51.980;5.850;2024-03-29T12:23:12;99020.66;;;18.59;52.87
51603;BME280;37954;51.980;5.850;2024-03-29T12:27:24;99028.19;;;18.71;52.44
51603;BME280;37954;51.980;5.850;2024-03-29T12:31:35;99017.97;;;18.68;51.64
51603;BME280;37954;51.980;5.850;2024-03-29T12:35:52;99033.97;;;18.69;51.13
51603;BME280;37954;51.980;5.850;2024-03-29T12:40:05;99036.84;;;18.64;50.76
51603;BME280;37954;51.980;5.850;2024-03-29T12:44:22;99036.97;;;18.51;51.24
51603;BME280;37954;51.980;5.850;2024-03-29T12:48:35;99034.69;;;18.44;51.64
51603;BME280;37954;51.980;5.850;2024-03-29T12:52:46;99031.63;;;18.37;52.28
51603;BME280;37954;51.980;5.850;2024-03-29T12:56:57;99037.44;;;18.53;51.67
51603;BME280;37954;51.980;5.850;2024-03-29T13:01:09;99030.13;;;18.62;51.51
51603;BME280;37954;51.980;5.850;2024-03-29T13:05:20;99034.56;;;18.58;51.17
51603;BME280;37954;51.980;5.850;2024-03-29T13:09:31;99024.00;;;18.56;51.39
51603;BME280;37954;51.980;5.850;2024-03-29T13:13:42;99029.88;;;18.41;50.81
51603;BME280;37954;51.980;5.850;2024-03-29T13:17:55;99036.66;;;18.52;50.77
51603;BME280;37954;51.980;5.850;2024-03-29T13:22:05;99045.81;;;18.65;50.75
51603;BME280;37954;51.980;5.850;2024-03-29T13:26:16;99031.09;;;18.74;50.82
51603;BME280;37954;51.980;5.850;2024-03-29T13:30:27;99022.59;;;18.76;50.27
51603;BME280;37954;51.980;5.850;2024-03-29T13:34:42;99039.72;;;18.76;50.36
51603;BME280;37954;51.980;5.850;2024-03-29T13:38:53;99029.00;;;18.63;50.27
51603;BME280;37954;51.980;5.850;2024-03-29T13:43:04;99053.00;;;18.61;50.14
51603;BME280;37954;51.980;5.850;2024-03-29T13:47:14;99044.06;;;18.86;50.85
51603;BME280;37954;51.980;5.850;2024-03-29T13:51:27;99036.56;;;19.00;51.23
51603;BME280;37954;51.980;5.850;2024-03-29T13:55:38;99052.41;;;18.98;49.53
51603;BME280;37954;51.980;5.850;2024-03-29T13:59:48;99058.13;;;18.80;49.34
51603;BME280;37954;51.980;5.850;2024-03-29T14:03:59;99067.06;;;18.63;49.64
51603;BME280;37954;51.980;5.850;2024-03-29T14:08:10;99070.72;;;18.50;49.16
51603;BME280;37954;51.980;5.850;2024-03-29T14:12:21;99084.56;;;18.39;49.73
51603;BME280;37954;51.980;5.850;2024-03-29T14:16:32;99066.34;;;18.40;50.18
51603;BME280;37954;51.980;5.850;2024-03-29T14:20:42;99070.53;;;18.46;50.82
51603;BME280;37954;51.980;5.850;2024-03-29T14:24:53;99082.88;;;18.52;49.82
51603;BME280;37954;51.980;5.850;2024-03-29T14:29:04;99074.53;;;18.49;49.10
51603;BME280;37954;51.980;5.850;2024-03-29T14:33:16;99062.06;;;18.56;49.52
51603;BME280;37954;51.980;5.850;2024-03-29T14:37:27;99057.44;;;18.48;49.34
51603;BME280;37954;51.980;5.850;2024-03-29T14:41:38;99051.47;;;18.37;49.23
51603;BME280;37954;51.980;5.850;2024-03-29T14:45:50;99062.00;;;18.30;49.82
51603;BME280;37954;51.980;5.850;2024-03-29T14:50:01;99057.34;;;18.22;50.33
51603;BME280;37954;51.980;5.850;2024-03-29T14:54:13;99051.78;;;18.27;50.18
51603;BME280;37954;51.980;5.850;2024-03-29T14:58:24;99060.53;;;18.24;50.36
51603;BME280;37954;51.980;5.850;2024-03-29T15:02:34;99072.84;;;18.22;50.42
51603;BME280;37954;51.980;5.850;2024-03-29T15:06:45;99068.00;;;18.10;50.55
51603;BME280;37954;51.980;5.850;2024-03-29T15:11:00;99065.13;;;18.06;50.27
51603;BME280;37954;51.980;5.850;2024-03-29T15:15:17;99036.88;;;17.85;49.82
51603;BME280;37954;51.980;5.850;2024-03-29T15:19:29;99061.22;;;17.90;50.22
51603;BME280;37954;51.980;5.850;2024-03-29T15:23:39;99059.88;;;17.79;50.02
51603;BME280;37954;51.980;5.850;2024-03-29T15:27:50;99067.97;;;17.70;50.37
51603;BME280;37954;51.980;5.850;2024-03-29T15:32:19;99057.13;;;17.70;50.76
51603;BME280;37954;51.980;5.850;2024-03-29T15:36:31;99054.84;;;17.64;50.66
51603;BME280;37954;51.980;5.850;2024-03-29T15:40:42;99051.56;;;17.53;51.65
51603;BME280;37954;51.980;5.850;2024-03-29T15:44:52;99046.75;;;17.72;52.05
51603;BME280;37954;51.980;5.850;2024-03-29T15:49:03;99053.91;;;17.99;51.64
51603;BME280;37954;51.980;5.850;2024-03-29T15:53:14;99060.34;;;18.12;50.01
51603;BME280;37954;51.980;5.850;2024-03-29T15:57:25;99047.31;;;17.92;50.25
51603;BME280;37954;51.980;5.850;2024-03-29T16:01:35;99082.19;;;17.98;50.15
51603;BME280;37954;51.980;5.850;2024-03-29T16:05:46;99075.63;;;17.68;49.43
51603;BME280;37954;51.980;5.850;2024-03-29T16:10:00;99101.59;;;17.61;49.66
51603;BME280;37954;51.980;5.850;2024-03-29T16:14:12;99099.63;;;17.53;50.30
51603;BME280;37954;51.980;5.850;2024-03-29T16:18:23;99098.66;;;17.26;50.30
51603;BME280;37954;51.980;5.850;2024-03-29T16:22:33;99093.28;;;17.13;50.70
51603;BME280;37954;51.980;5.850;2024-03-29T16:26:44;99103.50;;;17.16;50.76
51603;BME280;37954;51.980;5.850;2024-03-29T16:30:55;99119.91;;;17.11;50.84
51603;BME280;37954;51.980;5.850;2024-03-29T16:35:05;99127.53;;;17.09;51.52
51603;BME280;37954;51.980;5.850;2024-03-29T16:39:16;99132.47;;;17.07;51.71
51603;BME280;37954;51.980;5.850;2024-03-29T16:43:27;99118.50;;;16.99;52.13
51603;BME280;37954;51.980;5.850;2024-03-29T16:47:37;99115.53;;;16.87;52.28
51603;BME280;37954;51.980;5.850;2024-03-29T16:51:48;99115.13;;;16.80;52.76
51603;BME280;37954;51.980;5.850;2024-03-29T16:55:59;99119.19;;;16.69;52.92
51603;BME280;37954;51.980;5.850;2024-03-29T17:00:10;99120.69;;;16.61;53.67
51603;BME280;37954;51.980;5.850;2024-03-29T17:04:25;99113.94;;;16.59;54.17
51603;BME280;37954;51.980;5.850;2024-03-29T17:08:36;99115.94;;;16.53;54.34
51603;BME280;37954;51.980;5.850;2024-03-29T17:12:46;99114.94;;;16.49;54.54
51603;BME280;37954;51.980;5.850;2024-03-29T17:16:57;99120.16;;;16.46;55.06
51603;BME280;37954;51.980;5.850;2024-03-29T17:21:11;99131.13;;;16.41;55.27
51603;BME280;37954;51.980;5.850;2024-03-29T17:25:21;99118.75;;;16.34;55.54
51603;BME280;37954;51.980;5.850;2024-03-29T17:29:32;99122.47;;;16.25;55.78
51603;BME280;37954;51.980;5.850;2024-03-29T17:33:45;99126.28;;;16.10;56.01
51603;BME280;37954;51.980;5.850;2024-03-29T17:37:55;99131.78;;;16.05;56.15
51603;BME280;37954;51.980;5.850;2024-03-29T17:42:06;99130.56;;;15.97;56.85
51603;BME280;37954;51.980;5.850;2024-03-29T17:46:17;99123.44;;;15.88;57.19
51603;BME280;37954;51.980;5.850;2024-03-29T17:50:27;99131.91;;;15.81;57.19
51603;BME280;37954;51.980;5.850;2024-03-29T17:54:38;99135.09;;;15.70;57.34
51603;BME280;37954;51.980;5.850;2024-03-29T17:58:49;99144.50;;;15.58;57.89
51603;BME280;37954;51.980;5.850;2024-03-29T18:02:59;99162.47;;;15.49;58.13
51603;BME280;37954;51.980;5.850;2024-03-29T18:07:10;99150.19;;;15.38;58.31
51603;BME280;37954;51.980;5.850;2024-03-29T18:11:21;99173.22;;;15.36;58.64
51603;BME280;37954;51.980;5.850;2024-03-29T18:15:32;99182.72;;;15.33;58.79
51603;BME280;37954;51.980;5.850;2024-03-29T18:19:42;99181.69;;;15.29;59.24
51603;BME280;37954;51.980;5.850;2024-03-29T18:23:53;99184.97;;;15.26;59.33
51603;BME280;37954;51.980;5.850;2024-03-29T18:28:04;99180.25;;;15.18;59.54
51603;BME280;37954;51.980;5.850;2024-03-29T18:32:15;99169.78;;;15.11;59.43
51603;BME280;37954;51.980;5.850;2024-03-29T18:36:49;99194.63;;;15.13;59.54
51603;BME280;37954;51.980;5.850;2024-03-29T18:41:01;99187.66;;;15.07;59.75
51603;BME280;37954;51.980;5.850;2024-03-29T18:45:12;99198.00;;;15.05;60.11
51603;BME280;37954;51.980;5.850;2024-03-29T18:49:22;99202.09;;;15.03;60.47
51603;BME280;37954;51.980;5.850;2024-03-29T18:53:33;99208.34;;;14.98;60.64
51603;BME280;37954;51.980;5.850;2024-03-29T18:57:46;99212.72;;;14.94;60.77
51603;BME280;37954;51.980;5.850;2024-03-29T19:01:57;99214.09;;;14.91;61.32
51603;BME280;37954;51.980;5.850;2024-03-29T19:06:07;99202.34;;;14.82;61.25
51603;BME280;37954;51.980;5.850;2024-03-29T19:10:18;99216.72;;;14.78;61.38
51603;BME280;37954;51.980;5.850;2024-03-29T19:14:29;99215.47;;;14.70;61.68
51603;BME280;37954;51.980;5.850;2024-03-29T19:18:40;99218.66;;;14.72;61.89
51603;BME280;37954;51.980;5.850;2024-03-29T19:22:50;99205.78;;;14.64;61.79
51603;BME280;37954;51.980;5.850;2024-03-29T19:27:03;99220.09;;;14.65;61.85
51603;BME280;37954;51.980;5.850;2024-03-29T19:31:14;99219.06;;;14.60;61.82
51603;BME280;37954;51.980;5.850;2024-03-29T19:35:25;99214.47;;;14.61;61.70
51603;BME280;37954;51.980;5.850;2024-03-29T19:39:35;99211.81;;;14.56;62.15
51603;BME280;37954;51.980;5.850;2024-03-29T19:43:46;99216.41;;;14.55;62.57
51603;BME280;37954;51.980;5.850;2024-03-29T19:47:57;99223.78;;;14.50;63.14
51603;BME280;37954;51.980;5.850;2024-03-29T19:52:07;99230.28;;;14.49;63.16
51603;BME280;37954;51.980;5.850;2024-03-29T19:56:19;99248.13;;;14.45;63.43
51603;BME280;37954;51.980;5.850;2024-03-29T20:00:33;99244.91;;;14.38;63.85
51603;BME280;37954;51.980;5.850;2024-03-29T20:04:43;99264.44;;;14.35;64.63
51603;BME280;37954;51.980;5.850;2024-03-29T20:08:55;99267.19;;;14.24;64.57
51603;BME280;37954;51.980;5.850;2024-03-29T20:13:06;99275.81;;;14.26;64.79
51603;BME280;37954;51.980;5.850;2024-03-29T20:17:17;99267.25;;;14.19;65.26
51603;BME280;37954;51.980;5.850;2024-03-29T20:21:28;99270.00;;;14.14;65.70
51603;BME280;37954;51.980;5.850;2024-03-29T20:25:39;99260.03;;;14.10;65.87
51603;BME280;37954;51.980;5.850;2024-03-29T20:29:50;99252.78;;;14.05;65.86
51603;BME280;37954;51.980;5.850;2024-03-29T20:34:00;99265.75;;;14.03;65.38
51603;BME280;37954;51.980;5.850;2024-03-29T20:38:11;99265.75;;;14.03;65.72
51603;BME280;37954;51.980;5.850;2024-03-29T20:42:22;99264.94;;;14.03;65.27
51603;BME280;37954;51.980;5.850;2024-03-29T20:46:34;99263.63;;;14.00;65.72
51603;BME280;37954;51.980;5.850;2024-03-29T20:50:45;99265.53;;;14.00;66.18
51603;BME280;37954;51.980;5.850;2024-03-29T20:54:55;99276.06;;;13.96;66.40
51603;BME280;37954;51.980;5.850;2024-03-29T20:59:08;99289.84;;;13.94;67.05
51603;BME280;37954;51.980;5.850;2024-03-29T21:03:19;99290.41;;;13.91;67.75
51603;BME280;37954;51.980;5.850;2024-03-29T21:07:49;99290.13;;;13.93;68.82
51603;BME280;37954;51.980;5.850;2024-03-29T21:12:00;99298.50;;;13.91;69.46
51603;BME280;37954;51.980;5.850;2024-03-29T21:16:10;99307.16;;;13.88;69.56
51603;BME280;37954;51.980;5.850;2024-03-29T21:20:21;99312.03;;;13.86;70.74
51603;BME280;37954;51.980;5.850;2024-03-29T21:24:32;99327.72;;;13.84;71.35
51603;BME280;37954;51.980;5.850;2024-03-29T21:28:42;99330.69;;;13.83;71.30
51603;BME280;37954;51.980;5.850;2024-03-29T21:32:53;99339.34;;;13.80;72.05
51603;BME280;37954;51.980;5.850;2024-03-29T21:37:03;99345.28;;;13.82;72.33
51603;BME280;37954;51.980;5.850;2024-03-29T21:41:18;99360.38;;;13.83;72.59
51603;BME280;37954;51.980;5.850;2024-03-29T21:45:29;99354.47;;;13.76;73.07
51603;BME280;37954;51.980;5.850;2024-03-29T21:49:40;99369.06;;;13.70;73.73
51603;BME280;37954;51.980;5.850;2024-03-29T21:53:50;99362.91;;;13.64;74.32
51603;BME280;37954;51.980;5.850;2024-03-29T21:58:01;99363.75;;;13.54;75.27
51603;BME280;37954;51.980;5.850;2024-03-29T22:02:13;99383.78;;;13.38;76.58
51603;BME280;37954;51.980;5.850;2024-03-29T22:06:25;99374.38;;;13.26;77.55
51603;BME280;37954;51.980;5.850;2024-03-29T22:10:35;99387.59;;;13.17;78.32
51603;BME280;37954;51.980;5.850;2024-03-29T22:14:46;99390.59;;;13.15;78.43
51603;BME280;37954;51.980;5.850;2024-03-29T22:18:57;99395.19;;;13.15;79.60